createdAt,value
2023-01-12T00:04:48.478Z,99627.31
2023-01-12T00:07:15.680Z,99633.88
2023-01-12T00:09:42.531Z,99629.94
2023-01-12T00:12:12.021Z,99629.16
2023-01-12T00:14:39.406Z,99633.16
2023-01-12T00:17:06.869Z,99626.53
2023-01-12T00:19:33.723Z,99641.72
2023-01-12T00:22:02.200Z,99636.47
2023-01-12T00:24:32.363Z,99631.25
2023-01-12T00:27:02.016Z,99640.41
2023-01-12T00:29:28.893Z,99635.66
2023-01-12T00:31:57.779Z,99635.66
2023-01-12T00:34:29.324Z,99642.97
2023-01-12T00:36:56.935Z,99634.84
2023-01-12T00:39:23.731Z,99636.69
2023-01-12T00:41:50.564Z,99641.72
2023-01-12T00:44:17.462Z,99629.38
2023-01-12T00:46:44.446Z,99634.56
2023-01-12T00:49:11.563Z,99637.19
2023-01-12T00:51:38.451Z,99647.44
2023-01-12T00:54:05.326Z,99648.47
2023-01-12T00:56:32.087Z,99644.00
2023-01-12T00:59:00.992Z,99650.06
2023-01-12T01:01:27.935Z,99647.97
2023-01-12T01:03:55.265Z,99641.72
2023-01-12T01:06:22.348Z,99647.75
2023-01-12T01:08:52.546Z,99653.22
2023-01-12T01:11:20.507Z,99650.84
2023-01-12T01:13:47.388Z,99648.97
2023-01-12T01:16:17.788Z,99654.78
2023-01-12T01:18:45.176Z,99662.13
2023-01-12T01:21:13.602Z,99666.09
2023-01-12T01:23:42.904Z,99669.22
2023-01-12T01:26:16.901Z,99671.34
2023-01-12T01:28:44.035Z,99674.75
2023-01-12T01:31:19.994Z,99674.50
2023-01-12T01:33:50.157Z,99680.53
2023-01-12T01:36:18.448Z,99678.91
2023-01-12T01:38:46.962Z,99671.84
2023-01-12T01:41:20.885Z,99675.28
2023-01-12T01:43:57.304Z,99682.63
2023-01-12T01:46:41.933Z,99682.88
2023-01-12T01:49:29.840Z,99678.19
2023-01-12T01:52:05.942Z,99688.69
2023-01-12T01:54:40.245Z,99682.91
2023-01-12T01:57:09.817Z,99686.34
2023-01-12T01:59:38.485Z,99670.88
2023-01-12T02:02:06.715Z,99671.13
2023-01-12T02:04:36.093Z,99674.28
2023-01-12T02:07:05.841Z,99672.00
2023-01-12T02:09:34.406Z,99676.44
2023-01-12T02:12:02.913Z,99673.81
2023-01-12T02:14:29.744Z,99673.81
2023-01-12T02:17:24.103Z,99693.50
2023-01-12T02:20:40.222Z,99691.44
2023-01-12T02:23:24.081Z,99702.97
2023-01-12T02:26:12.460Z,99709.78
2023-01-12T02:29:28.932Z,99699.53
2023-01-12T02:32:44.164Z,99695.09
2023-01-12T02:35:39.980Z,99691.69
2023-01-12T02:38:29.464Z,99705.06
2023-01-12T02:41:18.893Z,99702.72
2023-01-12T02:43:46.492Z,99707.16
2023-01-12T02:46:21.799Z,99706.66
2023-01-12T02:49:07.786Z,99706.44
2023-01-12T02:51:51.035Z,99705.59
2023-01-12T02:54:21.695Z,99711.91
2023-01-12T02:56:51.951Z,99701.44
2023-01-12T02:59:26.253Z,99711.13
2023-01-12T03:01:59.939Z,99706.91
2023-01-12T03:04:27.772Z,99702.72
2023-01-12T03:06:57.587Z,99705.31
2023-01-12T03:09:30.733Z,99707.97
2023-01-12T03:12:03.941Z,99709.78
2023-01-12T03:14:35.989Z,99703.75
2023-01-12T03:17:35.645Z,99709.78
2023-01-12T03:20:14.922Z,99715.03
2023-01-12T03:22:42.089Z,99724.97
2023-01-12T03:25:12.359Z,99711.88
2023-01-12T03:27:43.888Z,99720.25
2023-01-12T03:30:18.892Z,99721.56
2023-01-12T03:33:11.871Z,99715.84
2023-01-12T03:35:52.248Z,99720.56
2023-01-12T03:41:47.603Z,99712.16
2023-01-12T03:44:45.716Z,99720.84
2023-01-12T03:47:19.964Z,99720.31
2023-01-12T03:50:04.191Z,99724.53
2023-01-12T03:52:34.559Z,99729.25
2023-01-12T03:55:05.876Z,99732.16
2023-01-12T03:57:33.520Z,99735.53
2023-01-12T04:00:02.880Z,99729.28
2023-01-12T04:02:39.694Z,99728.25
2023-01-12T04:05:12.031Z,99733.22
2023-01-12T04:07:44.316Z,99731.38
2023-01-12T04:10:11.362Z,99729.53
2023-01-12T04:12:39.935Z,99735.31
2023-01-12T04:15:07.104Z,99736.34
2023-01-12T04:17:34.408Z,99725.34
2023-01-12T04:20:02.974Z,99744.47
2023-01-12T04:22:29.775Z,99734.28
2023-01-12T04:27:57.034Z,99735.34
2023-01-12T04:30:24.601Z,99741.59
2023-01-12T04:32:56.475Z,99747.13
2023-01-12T04:35:26.064Z,99750.53
2023-01-12T04:37:53.560Z,99754.97
2023-01-12T04:40:20.908Z,99752.38
2023-01-12T04:42:50.967Z,99754.75
2023-01-12T04:45:18.440Z,99750.56
2023-01-12T04:50:37.286Z,99761.81
2023-01-12T04:53:10.355Z,99763.91
2023-01-12T04:55:39.057Z,99767.31
2023-01-12T04:58:05.971Z,99773.06
2023-01-12T05:00:33.870Z,99779.66
2023-01-12T05:03:01.780Z,99781.22
2023-01-12T05:05:30.521Z,99788.81
2023-01-12T05:08:03.890Z,99785.69
2023-01-12T05:10:31.350Z,99789.63
2023-01-12T05:12:58.146Z,99788.06
2023-01-12T05:15:25.372Z,99787.28
2023-01-12T05:18:16.887Z,99782.84
2023-01-12T05:20:47.951Z,99777.34
2023-01-12T05:23:18.395Z,99766.59
2023-01-12T05:25:45.200Z,99769.75
2023-01-12T05:28:12.362Z,99779.44
2023-01-12T05:30:39.410Z,99780.25
2023-01-12T05:33:07.025Z,99781.81
2023-01-12T05:35:38.145Z,99779.72
2023-01-12T05:38:05.970Z,99784.69
2023-01-12T05:40:36.754Z,99793.34
2023-01-12T05:43:03.928Z,99801.97
2023-01-12T05:45:30.855Z,99790.19
2023-01-12T05:47:59.892Z,99801.72
2023-01-12T05:50:27.852Z,99811.66
2023-01-12T05:53:20.183Z,99809.56
2023-01-12T05:55:47.453Z,99812.75
2023-01-12T05:58:14.290Z,99817.16
2023-01-12T06:00:41.426Z,99823.97
2023-01-12T06:03:08.272Z,99823.44
2023-01-12T06:05:34.986Z,99828.69
2023-01-12T06:08:02.958Z,99820.84
2023-01-12T06:10:30.409Z,99822.41
2023-01-12T06:13:22.225Z,99833.41
2023-01-12T06:15:49.513Z,99826.06
2023-01-12T06:18:18.028Z,99826.06
2023-01-12T06:20:44.727Z,99831.84
2023-01-12T06:23:11.581Z,99833.66
2023-01-12T06:25:40.013Z,99827.41
2023-01-12T06:28:07.419Z,99818.75
2023-01-12T06:30:34.175Z,99828.94
2023-01-12T06:33:02.611Z,99845.44
2023-01-12T06:35:29.561Z,99851.44
2023-01-12T06:37:57.181Z,99854.84
2023-01-12T06:40:24.516Z,99845.69
2023-01-12T06:42:51.251Z,99853.28
2023-01-12T06:45:19.442Z,99847.78
2023-01-12T06:47:49.897Z,99847.78
2023-01-12T06:50:18.434Z,99855.13
2023-01-12T06:52:46.943Z,99850.13
2023-01-12T06:55:13.779Z,99848.56
2023-01-12T06:57:41.654Z,99844.09
2023-01-12T07:03:00.371Z,99842.53
2023-01-12T07:05:28.938Z,99843.84
2023-01-12T07:07:59.689Z,99850.41
2023-01-12T07:10:27.062Z,99855.09
2023-01-12T07:13:00.926Z,99854.31
2023-01-12T07:15:28.433Z,99848.81
2023-01-12T07:17:56.946Z,99847.78
2023-01-12T07:20:25.899Z,99857.75
2023-01-12T07:22:55.381Z,99851.69
2023-01-12T07:25:23.197Z,99843.59
2023-01-12T07:27:51.214Z,99839.91
2023-01-12T07:30:22.454Z,99831.56
2023-01-12T07:32:51.086Z,99851.44
2023-01-12T07:35:18.360Z,99848.81
2023-01-12T07:37:52.858Z,99856.41
2023-01-12T07:40:21.037Z,99847.50
2023-01-12T07:42:47.934Z,99847.25
2023-01-12T07:45:16.135Z,99841.75
2023-01-12T07:47:42.922Z,99838.88
2023-01-12T07:50:13.031Z,99836.25
2023-01-12T07:52:41.142Z,99843.81
2023-01-12T07:55:08.738Z,99836.78
2023-01-12T07:57:35.610Z,99837.56
2023-01-12T08:00:02.945Z,99838.34
2023-01-12T08:02:30.332Z,99827.63
2023-01-12T08:04:58.433Z,99819.28
2023-01-12T08:07:25.307Z,99828.69
2023-01-12T08:09:54.076Z,99819.53
2023-01-12T08:12:23.835Z,99825.31
2023-01-12T08:14:51.391Z,99823.19
2023-01-12T08:17:20.728Z,99828.16
2023-01-12T08:19:55.556Z,99810.88
2023-01-12T08:22:31.941Z,99810.59
2023-01-12T08:25:06.434Z,99810.59
2023-01-12T08:27:42.882Z,99812.16
2023-01-12T08:30:15.003Z,99816.31
2023-01-12T08:32:42.156Z,99817.13
2023-01-12T08:35:09.534Z,99821.03
2023-01-12T08:37:36.581Z,99822.59
2023-01-12T08:40:06.226Z,99819.72
2023-01-12T08:42:33.462Z,99830.44
2023-01-12T08:45:00.593Z,99821.25
2023-01-12T08:47:28.766Z,99825.97
2023-01-12T08:49:58.512Z,99822.56
2023-01-12T08:52:26.265Z,99824.63
2023-01-12T08:54:53.318Z,99834.56
2023-01-12T08:57:20.442Z,99831.94
2023-01-12T08:59:48.890Z,99826.72
2023-01-12T09:02:16.672Z,99830.38
2023-01-12T09:04:48.914Z,99830.63
2023-01-12T09:07:17.392Z,99834.53
2023-01-12T09:09:44.554Z,99825.63
2023-01-12T09:12:12.320Z,99821.94
2023-01-12T09:14:40.031Z,99826.88
2023-01-12T09:17:07.498Z,99819.50
2023-01-12T09:19:34.358Z,99827.34
2023-01-12T09:22:01.277Z,99810.28
2023-01-12T09:24:28.151Z,99814.19
2023-01-12T09:26:54.984Z,99806.56
2023-01-12T09:29:22.268Z,99807.84
2023-01-12T09:31:51.884Z,99808.06
2023-01-12T09:34:19.379Z,99799.91
2023-01-12T09:36:46.951Z,99798.59
2023-01-12T09:39:26.722Z,99805.38
2023-01-12T09:41:56.941Z,99806.94
2023-01-12T09:44:30.227Z,99806.94
2023-01-12T09:47:03.218Z,99797.19
2023-01-12T09:49:43.995Z,99802.94
2023-01-12T09:52:22.273Z,99809.19
2023-01-12T09:54:51.490Z,99804.19
2023-01-12T09:57:28.803Z,99803.09
2023-01-12T10:00:02.746Z,99804.09
2023-01-12T10:02:43.375Z,99794.91
2023-01-12T10:05:39.713Z,99800.94
2023-01-12T10:08:17.833Z,99796.16
2023-01-12T10:11:12.912Z,99800.56
2023-01-12T10:13:56.102Z,99800.78
2023-01-12T10:16:49.056Z,99794.94
2023-01-12T10:19:24.123Z,99796.72
2023-01-12T10:21:54.890Z,99797.47
2023-01-12T10:24:25.373Z,99798.25
2023-01-12T10:27:03.581Z,99806.88
2023-01-12T10:29:32.193Z,99790.03
2023-01-12T10:31:58.952Z,99794.78
2023-01-12T10:34:26.467Z,99787.63
2023-01-12T10:36:55.882Z,99784.13
2023-01-12T10:39:37.656Z,99781.75
2023-01-12T10:42:21.519Z,99769.34
2023-01-12T10:45:13.228Z,99767.16
2023-01-12T10:48:19.431Z,99761.63
2023-01-12T10:51:03.926Z,99759.81
2023-01-12T10:53:58.609Z,99753.41
2023-01-12T10:56:36.028Z,99748.56
2023-01-12T10:59:25.740Z,99742.75
2023-01-12T11:02:07.209Z,99739.06
2023-01-12T11:04:40.075Z,99725.09
2023-01-12T11:10:29.004Z,99725.72
2023-01-12T11:12:58.704Z,99723.09
2023-01-12T11:15:26.387Z,99715.47
2023-01-12T11:17:59.512Z,99713.34
2023-01-12T11:20:37.058Z,99707.38
2023-01-12T11:23:09.897Z,99706.59
2023-01-12T11:25:45.726Z,99700.25
2023-01-12T11:28:17.909Z,99692.88
2023-01-12T11:30:55.261Z,99686.28
2023-01-12T11:36:34.883Z,99676.44
2023-01-12T11:39:29.321Z,99662.47
2023-01-12T11:42:11.110Z,99669.19
2023-01-12T11:45:01.012Z,99661.16
2023-01-12T11:47:34.917Z,99656.84
2023-01-12T11:50:20.756Z,99655.19
2023-01-12T11:52:47.640Z,99645.44
2023-01-12T11:55:21.398Z,99641.44
2023-01-12T12:01:16.254Z,99630.03
2023-01-12T12:04:24.779Z,99632.41
2023-01-12T12:07:02.946Z,99625.56
2023-01-12T12:10:05.253Z,99626.63
2023-01-12T12:13:00.908Z,99629.47
2023-01-12T12:15:57.172Z,99618.06
2023-01-12T12:18:26.903Z,99618.25
2023-01-12T12:21:15.766Z,99618.84
2023-01-12T12:23:52.973Z,99619.16
2023-01-12T12:26:35.865Z,99617.88
2023-01-12T12:29:21.925Z,99621.97
2023-01-12T12:32:23.381Z,99617.22
2023-01-12T12:35:12.927Z,99621.88
2023-01-12T12:37:43.474Z,99607.38
2023-01-12T12:40:16.371Z,99610.50
2023-01-12T12:42:48.883Z,99604.53
2023-01-12T12:46:22.588Z,99608.66
2023-01-12T12:49:00.853Z,99601.41
2023-01-12T12:51:32.871Z,99594.91
2023-01-12T12:54:07.118Z,99596.94
2023-01-12T12:56:38.083Z,99595.75
2023-01-12T12:59:05.412Z,99593.63
2023-01-12T13:01:32.371Z,99585.41
2023-01-12T13:04:01.524Z,99598.59
2023-01-12T13:06:28.554Z,99607.06
2023-01-12T13:09:00.135Z,99591.00
2023-01-12T13:11:49.751Z,99592.84
2023-01-12T13:14:43.194Z,99589.91
2023-01-12T13:17:19.909Z,99591.28
2023-01-12T13:19:49.458Z,99597.31
2023-01-12T13:22:42.632Z,99590.81
2023-01-12T13:25:17.456Z,99588.75
2023-01-12T13:27:53.941Z,99598.78
2023-01-12T13:30:29.134Z,99594.72
2023-01-12T13:33:15.524Z,99598.91
2023-01-12T13:35:43.249Z,99604.03
2023-01-12T13:38:25.919Z,99603.47
2023-01-12T13:41:14.374Z,99606.19
2023-01-12T13:43:50.948Z,99610.38
2023-01-12T13:46:29.048Z,99602.88
2023-01-12T13:48:56.901Z,99603.56
2023-01-12T13:51:38.352Z,99607.94
2023-01-12T13:54:12.049Z,99600.63
2023-01-12T13:57:18.367Z,99614.25
2023-01-12T14:00:02.980Z,99614.75
2023-01-12T14:02:40.564Z,99605.75
2023-01-12T14:05:39.266Z,99609.88
2023-01-12T14:08:06.009Z,99600.78
2023-01-12T14:10:43.846Z,99594.25
2023-01-12T14:13:42.951Z,99595.13
2023-01-12T14:16:14.911Z,99591.81
2023-01-12T14:18:42.902Z,99596.88
2023-01-12T14:21:33.405Z,99600.44
2023-01-12T14:24:16.644Z,99603.94
2023-01-12T14:26:44.178Z,99602.75
2023-01-12T14:29:11.147Z,99600.97
2023-01-12T14:31:42.904Z,99604.34
2023-01-12T14:34:38.407Z,99588.19
2023-01-12T14:37:28.936Z,99583.03
2023-01-12T14:39:57.735Z,99575.59
2023-01-12T14:42:24.759Z,99579.56
2023-01-12T14:44:57.880Z,99580.34
2023-01-12T14:47:28.794Z,99579.84
2023-01-12T14:49:55.956Z,99585.94
2023-01-12T14:52:31.398Z,99592.53
2023-01-12T14:55:18.106Z,99592.53
2023-01-12T14:57:53.556Z,99592.66
2023-01-12T15:00:23.837Z,99593.88
2023-01-12T15:02:54.064Z,99591.97
2023-01-12T15:05:26.904Z,99605.03
2023-01-12T15:08:09.116Z,99604.38
2023-01-12T15:11:08.283Z,99608.44
2023-01-12T15:13:36.966Z,99613.69
2023-01-12T15:16:05.056Z,99620.91
2023-01-12T15:18:32.967Z,99615.44
2023-01-12T15:21:02.949Z,99618.50
2023-01-12T15:23:34.874Z,99614.84
2023-01-12T15:26:03.396Z,99616.50
2023-01-12T15:28:30.904Z,99613.38
2023-01-12T15:30:59.358Z,99610.97
2023-01-12T15:33:26.480Z,99605.44
2023-01-12T15:39:13.572Z,99603.00
2023-01-12T15:41:40.799Z,99603.34
2023-01-12T15:44:15.569Z,99600.78
2023-01-12T15:46:43.146Z,99598.78
2023-01-12T15:49:11.625Z,99594.31
2023-01-12T15:51:42.943Z,99583.84
2023-01-12T15:54:13.032Z,99574.69
2023-01-12T15:56:43.956Z,99569.19
2023-01-12T15:59:11.392Z,99569.91
2023-01-12T16:01:42.246Z,99577.25
2023-01-12T16:07:06.797Z,99590.75
2023-01-12T16:09:34.643Z,99586.94
2023-01-12T16:12:01.479Z,99594.38
2023-01-12T16:14:32.378Z,99596.38
2023-01-12T16:16:59.449Z,99597.38
2023-01-12T16:19:27.514Z,99571.78
2023-01-12T16:21:54.215Z,99535.59
2023-01-12T16:24:47.949Z,99533.19
2023-01-12T16:27:16.129Z,99549.38
2023-01-12T16:29:43.281Z,99552.72
2023-01-12T16:32:10.846Z,99555.34
2023-01-12T16:34:39.151Z,99560.38
2023-01-12T16:37:06.291Z,99570.31
2023-01-12T16:39:34.945Z,99567.75
2023-01-12T16:42:05.561Z,99571.41
2023-01-12T16:44:34.191Z,99572.47
2023-01-12T16:47:01.938Z,99566.75
2023-01-12T16:49:28.881Z,99563.06
2023-01-12T16:51:55.625Z,99568.56
2023-01-12T16:54:24.913Z,99563.91
2023-01-12T16:56:51.639Z,99568.34
2023-01-12T16:59:20.670Z,99559.97
2023-01-12T17:01:47.954Z,99568.41
2023-01-12T17:04:14.878Z,99558.94
2023-01-12T17:06:41.672Z,99560.25
2023-01-12T17:09:09.564Z,99549.25
2023-01-12T17:11:36.403Z,99557.41
2023-01-12T17:16:57.916Z,99558.97
2023-01-12T17:19:27.180Z,99559.97
2023-01-12T17:24:47.193Z,99561.59
2023-01-12T17:27:17.408Z,99577.09
2023-01-12T17:32:41.845Z,99573.47
2023-01-12T17:35:08.908Z,99577.88
2023-01-12T17:37:36.176Z,99574.66
2023-01-12T17:40:03.799Z,99579.63
2023-01-12T17:42:31.874Z,99582.84
2023-01-12T17:44:58.946Z,99578.78
2023-01-12T17:47:26.832Z,99571.81
2023-01-12T17:49:54.542Z,99579.94
2023-01-12T17:52:22.850Z,99574.72
2023-01-12T17:54:49.885Z,99561.81
2023-01-12T17:57:16.702Z,99562.16
2023-01-12T17:59:43.905Z,99569.91
2023-01-12T18:02:12.242Z,99567.81
2023-01-12T18:04:39.450Z,99569.78
2023-01-12T18:07:09.352Z,99565.56
2023-01-12T18:09:36.190Z,99562.78
2023-01-12T18:12:03.425Z,99563.59
2023-01-12T18:14:30.457Z,99564.41
2023-01-12T18:16:58.453Z,99555.00
2023-01-12T18:19:25.903Z,99552.88
2023-01-12T18:21:53.491Z,99548.22
2023-01-12T18:24:20.431Z,99551.34
2023-01-12T18:26:47.212Z,99552.72
2023-01-12T18:29:14.129Z,99554.56
2023-01-12T18:31:44.341Z,99550.41
2023-01-12T18:34:11.730Z,99544.34
2023-01-12T18:36:41.279Z,99541.44
2023-01-12T18:39:13.928Z,99549.88
2023-01-12T18:42:06.240Z,99551.38
2023-01-12T18:44:35.801Z,99554.81
2023-01-12T18:47:03.301Z,99554.56
2023-01-12T18:49:35.005Z,99548.28
2023-01-12T18:52:08.925Z,99554.66
2023-01-12T18:54:35.883Z,99542.13
2023-01-12T18:57:03.151Z,99539.53
2023-01-12T18:59:34.250Z,99544.78
2023-01-12T19:02:03.285Z,99551.00
2023-01-12T19:04:30.441Z,99544.81
2023-01-12T19:06:58.064Z,99556.06
2023-01-12T19:09:25.120Z,99550.31
2023-01-12T19:11:52.405Z,99544.78
2023-01-12T19:14:19.635Z,99544.53
2023-01-12T19:16:46.902Z,99545.59
2023-01-12T19:22:31.072Z,99545.38
2023-01-12T19:24:58.192Z,99544.06
2023-01-12T19:27:25.849Z,99546.41
2023-01-12T19:32:43.900Z,99535.69
2023-01-12T19:35:36.907Z,99538.88
2023-01-12T19:38:05.393Z,99528.16
2023-01-12T19:40:33.170Z,99532.03
2023-01-12T19:43:04.776Z,99524.97
2023-01-12T19:45:36.270Z,99533.06
2023-01-12T19:48:07.272Z,99532.31
2023-01-12T19:50:35.339Z,99540.16
2023-01-12T19:55:53.755Z,99522.13
2023-01-12T19:58:22.975Z,99532.91
2023-01-12T20:00:51.474Z,99533.94
2023-01-12T20:03:21.083Z,99533.94
2023-01-12T20:05:52.548Z,99529.22
2023-01-12T20:08:21.909Z,99535.00
2023-01-12T20:11:04.014Z,99537.38
2023-01-12T20:13:32.306Z,99521.94
2023-01-12T20:16:00.147Z,99521.91
2023-01-12T20:18:29.347Z,99522.94
2023-01-12T20:20:56.384Z,99519.84
2023-01-12T20:23:23.387Z,99522.72
2023-01-12T20:25:50.488Z,99526.34
2023-01-12T20:28:17.693Z,99528.47
2023-01-12T20:30:44.694Z,99526.88
2023-01-12T20:33:12.435Z,99527.66
2023-01-12T20:35:44.979Z,99534.19
2023-01-12T20:38:14.486Z,99528.19
2023-01-12T20:40:43.181Z,99527.16
2023-01-12T20:43:10.297Z,99524.28
2023-01-12T20:45:37.356Z,99520.63
2023-01-12T20:48:05.730Z,99516.69
2023-01-12T20:50:32.825Z,99511.72
2023-01-12T20:53:00.465Z,99503.63
2023-01-12T20:55:27.309Z,99506.22
2023-01-12T20:57:54.212Z,99501.25
2023-01-12T21:00:21.396Z,99505.44
2023-01-12T21:02:48.309Z,99503.59
2023-01-12T21:05:15.172Z,99509.63
2023-01-12T21:07:41.979Z,99509.63
2023-01-12T21:10:09.370Z,99504.91
2023-01-12T21:12:36.213Z,99513.00
2023-01-12T21:15:03.628Z,99515.63
2023-01-12T21:17:30.447Z,99515.13
2023-01-12T21:19:58.303Z,99512.00
2023-01-12T21:22:51.019Z,99503.63
2023-01-12T21:25:18.455Z,99502.63
2023-01-12T21:27:45.526Z,99506.25
2023-01-12T21:30:12.726Z,99508.88
2023-01-12T21:32:39.580Z,99507.53
2023-01-12T21:35:06.981Z,99508.34
2023-01-12T21:37:36.064Z,99508.88
2023-01-12T21:40:02.974Z,99504.41
2023-01-12T21:42:29.932Z,99499.72
2023-01-12T21:44:57.023Z,99498.41
2023-01-12T21:47:27.386Z,99503.91
2023-01-12T21:49:54.182Z,99493.97
2023-01-12T21:52:24.920Z,99494.75
2023-01-12T21:54:51.660Z,99497.63
2023-01-12T21:57:22.427Z,99502.56
2023-01-12T21:59:49.340Z,99503.38
2023-01-12T22:02:17.471Z,99510.19
2023-01-12T22:04:44.258Z,99508.31
2023-01-12T22:07:12.654Z,99506.75
2023-01-12T22:09:39.651Z,99508.59
2023-01-12T22:12:10.464Z,99510.69
2023-01-12T22:14:37.476Z,99503.13
2023-01-12T22:17:06.452Z,99493.69
2023-01-12T22:19:34.538Z,99502.34
2023-01-12T22:22:27.490Z,99503.63
2023-01-12T22:24:56.044Z,99506.25
2023-01-12T22:27:25.076Z,99500.00
2023-01-12T22:29:53.309Z,99495.56
2023-01-12T22:32:45.517Z,99494.78
2023-01-12T22:35:13.241Z,99495.28
2023-01-12T22:37:41.502Z,99498.16
2023-01-12T22:40:11.887Z,99490.56
2023-01-12T22:42:39.540Z,99493.44
2023-01-12T22:45:07.205Z,99487.44
2023-01-12T22:47:47.740Z,99489.81
2023-01-12T22:50:15.856Z,99493.19
2023-01-12T22:52:44.131Z,99491.63
2023-01-12T22:55:17.228Z,99487.97
2023-01-12T22:57:47.310Z,99490.31
2023-01-12T23:00:18.414Z,99485.38
2023-01-12T23:03:13.179Z,99479.59
2023-01-12T23:06:06.875Z,99472.81
2023-01-12T23:08:33.942Z,99482.50
2023-01-12T23:11:10.859Z,99476.97
2023-01-12T23:16:56.007Z,99484.56
2023-01-12T23:19:22.980Z,99485.88
2023-01-12T23:21:52.285Z,99490.28
2023-01-12T23:24:20.107Z,99489.75
2023-01-12T23:26:47.089Z,99482.72
2023-01-12T23:29:16.177Z,99474.63
2023-01-12T23:31:43.437Z,99473.59
2023-01-12T23:34:10.576Z,99475.94
2023-01-12T23:36:44.938Z,99466.56
2023-01-12T23:39:12.431Z,99462.63
2023-01-12T23:41:39.999Z,99468.09
2023-01-12T23:44:32.090Z,99467.06
2023-01-12T23:46:59.451Z,99466.78
2023-01-12T23:49:26.349Z,99469.41
2023-01-12T23:51:57.990Z,99465.50
2023-01-12T23:54:26.410Z,99461.31
2023-01-12T23:56:53.418Z,99467.06
2023-01-12T23:59:20.455Z,99459.75
